sensor_id;sensor_type;location;lat;lon;timestamp;P1;durP1;ratioP1;P2;durP2;ratioP2
15968;SDS011;8085;53.472;9.794;2023-10-19T00:00:48;6.72;;;4.35;;
15968;SDS011;8085;53.472;9.794;2023-10-19T00:03:18;8.70;;;4.95;;
15968;SDS011;8085;53.472;9.794;2023-10-19T00:05:44;8.48;;;4.80;;
15968;SDS011;8085;53.472;9.794;2023-10-19T00:08:12;8.18;;;4.55;;
15968;SDS011;8085;53.472;9.794;2023-10-19T00:10:43;9.05;;;5.00;;
15968;SDS011;8085;53.472;9.794;2023-10-19T00:13:13;7.13;;;4.53;;
15968;SDS011;8085;53.472;9.794;2023-10-19T00:15:40;7.38;;;4.57;;
15968;SDS011;8085;53.472;9.794;2023-10-19T00:18:15;8.35;;;5.38;;
15968;SDS011;8085;53.472;9.794;2023-10-19T00:20:50;7.82;;;5.10;;
15968;SDS011;8085;53.472;9.794;2023-10-19T00:25:53;9.45;;;4.93;;
15968;SDS011;8085;53.472;9.794;2023-10-19T00:28:21;8.95;;;5.00;;
15968;SDS011;8085;53.472;9.794;2023-10-19T00:30:47;7.30;;;5.03;;
15968;SDS011;8085;53.472;9.794;2023-10-19T00:33:17;10.07;;;6.05;;
15968;SDS011;8085;53.472;9.794;2023-10-19T00:35:47;8.35;;;5.03;;
15968;SDS011;8085;53.472;9.794;2023-10-19T00:38:23;10.00;;;5.07;;
15968;SDS011;8085;53.472;9.794;2023-10-19T00:41:04;8.43;;;5.55;;
15968;SDS011;8085;53.472;9.794;2023-10-19T00:43:37;8.60;;;5.40;;
15968;SDS011;8085;53.472;9.794;2023-10-19T00:46:08;10.07;;;5.32;;
15968;SDS011;8085;53.472;9.794;2023-10-19T00:48:36;8.35;;;5.47;;
15968;SDS011;8085;53.472;9.794;2023-10-19T00:51:06;12.23;;;5.65;;
15968;SDS011;8085;53.472;9.794;2023-10-19T00:53:35;11.77;;;5.72;;
15968;SDS011;8085;53.472;9.794;2023-10-19T00:56:04;9.00;;;5.60;;
15968;SDS011;8085;53.472;9.794;2023-10-19T00:58:35;9.90;;;5.60;;
15968;SDS011;8085;53.472;9.794;2023-10-19T01:01:04;7.90;;;5.38;;
15968;SDS011;8085;53.472;9.794;2023-10-19T01:03:32;9.98;;;5.55;;
15968;SDS011;8085;53.472;9.794;2023-10-19T01:06:02;9.77;;;5.82;;
15968;SDS011;8085;53.472;9.794;2023-10-19T01:08:36;11.15;;;5.72;;
15968;SDS011;8085;53.472;9.794;2023-10-19T01:11:07;9.95;;;5.63;;
15968;SDS011;8085;53.472;9.794;2023-10-19T01:13:37;12.38;;;5.63;;
15968;SDS011;8085;53.472;9.794;2023-10-19T01:16:11;8.98;;;5.68;;
15968;SDS011;8085;53.472;9.794;2023-10-19T01:18:41;11.55;;;5.57;;
15968;SDS011;8085;53.472;9.794;2023-10-19T01:21:08;9.75;;;6.03;;
15968;SDS011;8085;53.472;9.794;2023-10-19T01:23:38;10.55;;;6.97;;
15968;SDS011;8085;53.472;9.794;2023-10-19T01:26:06;9.30;;;6.07;;
15968;SDS011;8085;53.472;9.794;2023-10-19T01:28:35;10.48;;;6.13;;
15968;SDS011;8085;53.472;9.794;2023-10-19T01:31:13;16.67;;;6.28;;
15968;SDS011;8085;53.472;9.794;2023-10-19T01:33:42;10.05;;;5.95;;
15968;SDS011;8085;53.472;9.794;2023-10-19T01:36:10;8.32;;;5.45;;
15968;SDS011;8085;53.472;9.794;2023-10-19T01:38:38;10.43;;;5.88;;
15968;SDS011;8085;53.472;9.794;2023-10-19T01:41:06;11.65;;;6.38;;
15968;SDS011;8085;53.472;9.794;2023-10-19T01:43:39;9.20;;;5.50;;
15968;SDS011;8085;53.472;9.794;2023-10-19T01:46:08;12.40;;;5.70;;
15968;SDS011;8085;53.472;9.794;2023-10-19T01:48:38;9.27;;;5.72;;
15968;SDS011;8085;53.472;9.794;2023-10-19T01:51:07;8.43;;;5.30;;
15968;SDS011;8085;53.472;9.794;2023-10-19T01:53:35;12.52;;;6.10;;
15968;SDS011;8085;53.472;9.794;2023-10-19T01:56:06;12.38;;;5.97;;
15968;SDS011;8085;53.472;9.794;2023-10-19T01:58:35;10.27;;;5.78;;
15968;SDS011;8085;53.472;9.794;2023-10-19T02:01:02;9.32;;;5.95;;
15968;SDS011;8085;53.472;9.794;2023-10-19T02:03:33;11.23;;;5.68;;
15968;SDS011;8085;53.472;9.794;2023-10-19T02:06:02;13.98;;;6.75;;
15968;SDS011;8085;53.472;9.794;2023-10-19T02:08:42;9.27;;;6.03;;
15968;SDS011;8085;53.472;9.794;2023-10-19T02:11:15;10.32;;;5.95;;
15968;SDS011;8085;53.472;9.794;2023-10-19T02:13:47;19.98;;;6.53;;
15968;SDS011;8085;53.472;9.794;2023-10-19T02:16:14;11.52;;;5.63;;
15968;SDS011;8085;53.472;9.794;2023-10-19T02:18:42;10.60;;;5.97;;
15968;SDS011;8085;53.472;9.794;2023-10-19T02:21:08;10.40;;;5.72;;
15968;SDS011;8085;53.472;9.794;2023-10-19T02:23:37;11.40;;;6.40;;
15968;SDS011;8085;53.472;9.794;2023-10-19T02:26:04;8.90;;;5.65;;
15968;SDS011;8085;53.472;9.794;2023-10-19T02:28:34;9.80;;;5.47;;
15968;SDS011;8085;53.472;9.794;2023-10-19T02:31:03;12.68;;;6.30;;
15968;SDS011;8085;53.472;9.794;2023-10-19T02:33:40;11.70;;;6.10;;
15968;SDS011;8085;53.472;9.794;2023-10-19T02:36:10;10.57;;;5.68;;
15968;SDS011;8085;53.472;9.794;2023-10-19T02:38:41;10.38;;;5.85;;
15968;SDS011;8085;53.472;9.794;2023-10-19T02:41:09;10.00;;;5.85;;
15968;SDS011;8085;53.472;9.794;2023-10-19T02:43:37;10.52;;;6.80;;
15968;SDS011;8085;53.472;9.794;2023-10-19T02:46:04;12.13;;;6.10;;
15968;SDS011;8085;53.472;9.794;2023-10-19T02:48:31;13.05;;;6.63;;
15968;SDS011;8085;53.472;9.794;2023-10-19T02:50:57;10.02;;;6.07;;
15968;SDS011;8085;53.472;9.794;2023-10-19T02:53:31;10.85;;;6.10;;
15968;SDS011;8085;53.472;9.794;2023-10-19T02:55:59;10.80;;;6.20;;
15968;SDS011;8085;53.472;9.794;2023-10-19T02:58:35;10.45;;;6.35;;
15968;SDS011;8085;53.472;9.794;2023-10-19T03:01:11;14.07;;;6.95;;
15968;SDS011;8085;53.472;9.794;2023-10-19T03:03:42;12.85;;;6.25;;
15968;SDS011;8085;53.472;9.794;2023-10-19T03:06:09;12.73;;;7.07;;
15968;SDS011;8085;53.472;9.794;2023-10-19T03:08:36;11.45;;;6.65;;
15968;SDS011;8085;53.472;9.794;2023-10-19T03:11:02;13.32;;;6.63;;
15968;SDS011;8085;53.472;9.794;2023-10-19T03:13:30;10.95;;;6.82;;
15968;SDS011;8085;53.472;9.794;2023-10-19T03:15:59;14.27;;;6.90;;
15968;SDS011;8085;53.472;9.794;2023-10-19T03:18:32;12.10;;;6.95;;
15968;SDS011;8085;53.472;9.794;2023-10-19T03:21:00;13.20;;;7.50;;
15968;SDS011;8085;53.472;9.794;2023-10-19T03:23:26;11.93;;;7.45;;
15968;SDS011;8085;53.472;9.794;2023-10-19T03:25:54;15.38;;;7.60;;
15968;SDS011;8085;53.472;9.794;2023-10-19T03:28:38;14.88;;;7.55;;
15968;SDS011;8085;53.472;9.794;2023-10-19T03:31:07;13.43;;;7.55;;
15968;SDS011;8085;53.472;9.794;2023-10-19T03:33:38;12.52;;;7.47;;
15968;SDS011;8085;53.472;9.794;2023-10-19T03:36:06;14.20;;;8.30;;
15968;SDS011;8085;53.472;9.794;2023-10-19T03:38:38;15.57;;;8.35;;
15968;SDS011;8085;53.472;9.794;2023-10-19T03:41:05;17.85;;;8.65;;
15968;SDS011;8085;53.472;9.794;2023-10-19T03:43:34;14.63;;;8.45;;
15968;SDS011;8085;53.472;9.794;2023-10-19T03:48:41;14.68;;;8.25;;
15968;SDS011;8085;53.472;9.794;2023-10-19T03:51:11;13.65;;;8.00;;
15968;SDS011;8085;53.472;9.794;2023-10-19T03:53:40;15.43;;;9.05;;
15968;SDS011;8085;53.472;9.794;2023-10-19T03:56:11;17.23;;;8.57;;
15968;SDS011;8085;53.472;9.794;2023-10-19T03:58:38;14.45;;;8.77;;
15968;SDS011;8085;53.472;9.794;2023-10-19T04:01:09;17.98;;;9.48;;
15968;SDS011;8085;53.472;9.794;2023-10-19T04:03:36;18.15;;;8.95;;
15968;SDS011;8085;53.472;9.794;2023-10-19T04:06:04;17.10;;;9.55;;
15968;SDS011;8085;53.472;9.794;2023-10-19T04:08:38;19.80;;;9.60;;
15968;SDS011;8085;53.472;9.794;2023-10-19T04:11:05;15.00;;;9.02;;
15968;SDS011;8085;53.472;9.794;2023-10-19T04:13:37;14.35;;;9.25;;
15968;SDS011;8085;53.472;9.794;2023-10-19T04:16:04;17.65;;;9.18;;
15968;SDS011;8085;53.472;9.794;2023-10-19T04:18:33;16.95;;;9.35;;
15968;SDS011;8085;53.472;9.794;2023-10-19T04:21:04;21.20;;;9.23;;
15968;SDS011;8085;53.472;9.794;2023-10-19T04:23:31;18.20;;;9.20;;
15968;SDS011;8085;53.472;9.794;2023-10-19T04:26:01;19.90;;;10.38;;
15968;SDS011;8085;53.472;9.794;2023-10-19T04:28:36;16.52;;;9.13;;
15968;SDS011;8085;53.472;9.794;2023-10-19T04:31:14;20.40;;;8.85;;
15968;SDS011;8085;53.472;9.794;2023-10-19T04:33:42;16.75;;;9.82;;
15968;SDS011;8085;53.472;9.794;2023-10-19T04:36:12;18.95;;;9.23;;
15968;SDS011;8085;53.472;9.794;2023-10-19T04:38:40;20.23;;;9.48;;
15968;SDS011;8085;53.472;9.794;2023-10-19T04:41:07;21.77;;;10.18;;
15968;SDS011;8085;53.472;9.794;2023-10-19T04:43:34;21.10;;;10.20;;
15968;SDS011;8085;53.472;9.794;2023-10-19T04:46:06;17.42;;;9.40;;
15968;SDS011;8085;53.472;9.794;2023-10-19T04:48:36;19.48;;;9.80;;
15968;SDS011;8085;53.472;9.794;2023-10-19T04:51:05;18.52;;;10.32;;
15968;SDS011;8085;53.472;9.794;2023-10-19T04:53:33;19.35;;;9.65;;
15968;SDS011;8085;53.472;9.794;2023-10-19T04:56:00;19.85;;;10.63;;
15968;SDS011;8085;53.472;9.794;2023-10-19T04:58:29;18.13;;;10.13;;
15968;SDS011;8085;53.472;9.794;2023-10-19T05:00:56;17.73;;;10.45;;
15968;SDS011;8085;53.472;9.794;2023-10-19T05:03:23;21.65;;;10.48;;
15968;SDS011;8085;53.472;9.794;2023-10-19T05:05:51;20.73;;;10.27;;
15968;SDS011;8085;53.472;9.794;2023-10-19T05:08:18;20.95;;;10.32;;
15968;SDS011;8085;53.472;9.794;2023-10-19T05:10:46;23.30;;;11.05;;
15968;SDS011;8085;53.472;9.794;2023-10-19T05:13:13;20.30;;;10.20;;
15968;SDS011;8085;53.472;9.794;2023-10-19T05:15:40;22.27;;;10.90;;
15968;SDS011;8085;53.472;9.794;2023-10-19T05:18:09;24.05;;;11.10;;
15968;SDS011;8085;53.472;9.794;2023-10-19T05:20:37;23.00;;;11.40;;
15968;SDS011;8085;53.472;9.794;2023-10-19T05:23:05;24.20;;;11.30;;
15968;SDS011;8085;53.472;9.794;2023-10-19T05:25:33;24.83;;;11.27;;
15968;SDS011;8085;53.472;9.794;2023-10-19T05:28:02;23.95;;;11.43;;
15968;SDS011;8085;53.472;9.794;2023-10-19T05:30:30;24.63;;;12.35;;
15968;SDS011;8085;53.472;9.794;2023-10-19T05:32:58;21.17;;;10.70;;
15968;SDS011;8085;53.472;9.794;2023-10-19T05:35:26;22.42;;;10.48;;
15968;SDS011;8085;53.472;9.794;2023-10-19T05:37:54;22.83;;;11.82;;
15968;SDS011;8085;53.472;9.794;2023-10-19T05:40:22;26.42;;;11.25;;
15968;SDS011;8085;53.472;9.794;2023-10-19T05:42:54;25.25;;;11.45;;
15968;SDS011;8085;53.472;9.794;2023-10-19T05:45:22;20.70;;;10.85;;
15968;SDS011;8085;53.472;9.794;2023-10-19T05:47:50;23.23;;;11.55;;
15968;SDS011;8085;53.472;9.794;2023-10-19T05:50:16;25.10;;;12.45;;
15968;SDS011;8085;53.472;9.794;2023-10-19T05:52:44;26.27;;;12.38;;
15968;SDS011;8085;53.472;9.794;2023-10-19T05:55:12;27.63;;;11.75;;
15968;SDS011;8085;53.472;9.794;2023-10-19T05:57:39;26.38;;;13.30;;
15968;SDS011;8085;53.472;9.794;2023-10-19T06:00:07;25.35;;;11.85;;
15968;SDS011;8085;53.472;9.794;2023-10-19T06:02:40;22.05;;;11.30;;
15968;SDS011;8085;53.472;9.794;2023-10-19T06:05:10;28.20;;;13.05;;
15968;SDS011;8085;53.472;9.794;2023-10-19T06:07:37;27.25;;;13.48;;
15968;SDS011;8085;53.472;9.794;2023-10-19T06:10:04;24.33;;;11.50;;
15968;SDS011;8085;53.472;9.794;2023-10-19T06:12:32;23.42;;;11.45;;
15968;SDS011;8085;53.472;9.794;2023-10-19T06:15:02;25.92;;;11.82;;
15968;SDS011;8085;53.472;9.794;2023-10-19T06:17:30;26.10;;;11.52;;
15968;SDS011;8085;53.472;9.794;2023-10-19T06:19:58;23.52;;;11.40;;
15968;SDS011;8085;53.472;9.794;2023-10-19T06:22:29;24.20;;;11.38;;
15968;SDS011;8085;53.472;9.794;2023-10-19T06:24:56;22.77;;;11.10;;
15968;SDS011;8085;53.472;9.794;2023-10-19T06:27:23;20.17;;;9.88;;
15968;SDS011;8085;53.472;9.794;2023-10-19T06:29:50;23.90;;;11.18;;
15968;SDS011;8085;53.472;9.794;2023-10-19T06:32:18;23.42;;;11.85;;
15968;SDS011;8085;53.472;9.794;2023-10-19T06:34:44;23.77;;;11.40;;
15968;SDS011;8085;53.472;9.794;2023-10-19T06:37:13;23.83;;;11.88;;
15968;SDS011;8085;53.472;9.794;2023-10-19T06:39:40;24.08;;;12.02;;
15968;SDS011;8085;53.472;9.794;2023-10-19T06:42:07;23.60;;;11.23;;
15968;SDS011;8085;53.472;9.794;2023-10-19T06:44:40;26.08;;;10.80;;
15968;SDS011;8085;53.472;9.794;2023-10-19T06:47:08;21.88;;;11.23;;
15968;SDS011;8085;53.472;9.794;2023-10-19T06:49:36;24.65;;;11.23;;
15968;SDS011;8085;53.472;9.794;2023-10-19T06:52:03;25.55;;;11.63;;
15968;SDS011;8085;53.472;9.794;2023-10-19T06:54:32;26.08;;;11.50;;
15968;SDS011;8085;53.472;9.794;2023-10-19T06:56:59;23.42;;;11.13;;
15968;SDS011;8085;53.472;9.794;2023-10-19T06:59:28;23.85;;;11.57;;
15968;SDS011;8085;53.472;9.794;2023-10-19T07:01:58;24.50;;;11.10;;
15968;SDS011;8085;53.472;9.794;2023-10-19T07:04:26;22.50;;;10.25;;
15968;SDS011;8085;53.472;9.794;2023-10-19T07:06:54;23.23;;;11.48;;
15968;SDS011;8085;53.472;9.794;2023-10-19T07:09:21;24.20;;;12.55;;
15968;SDS011;8085;53.472;9.794;2023-10-19T07:11:49;23.95;;;11.70;;
15968;SDS011;8085;53.472;9.794;2023-10-19T07:14:18;24.58;;;11.77;;
15968;SDS011;8085;53.472;9.794;2023-10-19T07:16:47;23.83;;;10.70;;
15968;SDS011;8085;53.472;9.794;2023-10-19T07:19:15;22.13;;;11.15;;
15968;SDS011;8085;53.472;9.794;2023-10-19T07:21:42;26.92;;;12.30;;
15968;SDS011;8085;53.472;9.794;2023-10-19T07:24:13;23.52;;;12.32;;
15968;SDS011;8085;53.472;9.794;2023-10-19T07:26:43;25.02;;;12.95;;
15968;SDS011;8085;53.472;9.794;2023-10-19T07:29:20;34.30;;;16.02;;
15968;SDS011;8085;53.472;9.794;2023-10-19T07:31:46;23.10;;;11.93;;
15968;SDS011;8085;53.472;9.794;2023-10-19T07:34:13;23.90;;;11.32;;
15968;SDS011;8085;53.472;9.794;2023-10-19T07:36:41;26.63;;;12.45;;
15968;SDS011;8085;53.472;9.794;2023-10-19T07:39:09;30.42;;;13.30;;
15968;SDS011;8085;53.472;9.794;2023-10-19T07:41:44;23.60;;;12.63;;
15968;SDS011;8085;53.472;9.794;2023-10-19T07:44:11;35.88;;;16.52;;
15968;SDS011;8085;53.472;9.794;2023-10-19T07:46:39;25.98;;;12.02;;
15968;SDS011;8085;53.472;9.794;2023-10-19T07:49:07;25.98;;;13.07;;
15968;SDS011;8085;53.472;9.794;2023-10-19T07:51:39;23.13;;;11.50;;
15968;SDS011;8085;53.472;9.794;2023-10-19T07:54:10;39.47;;;15.27;;
15968;SDS011;8085;53.472;9.794;2023-10-19T07:56:38;26.35;;;11.85;;
15968;SDS011;8085;53.472;9.794;2023-10-19T07:59:05;24.52;;;11.38;;
15968;SDS011;8085;53.472;9.794;2023-10-19T08:01:33;27.83;;;13.20;;
15968;SDS011;8085;53.472;9.794;2023-10-19T08:04:01;25.02;;;11.27;;
15968;SDS011;8085;53.472;9.794;2023-10-19T08:06:28;25.73;;;12.10;;
15968;SDS011;8085;53.472;9.794;2023-10-19T08:08:56;20.60;;;11.85;;
15968;SDS011;8085;53.472;9.794;2023-10-19T08:11:23;24.33;;;11.73;;
15968;SDS011;8085;53.472;9.794;2023-10-19T08:13:50;27.10;;;12.43;;
15968;SDS011;8085;53.472;9.794;2023-10-19T08:16:17;26.35;;;13.00;;
15968;SDS011;8085;53.472;9.794;2023-10-19T08:18:45;24.10;;;11.65;;
15968;SDS011;8085;53.472;9.794;2023-10-19T08:21:13;26.45;;;11.70;;
15968;SDS011;8085;53.472;9.794;2023-10-19T08:23:40;25.40;;;11.32;;
15968;SDS011;8085;53.472;9.794;2023-10-19T08:26:10;22.95;;;12.48;;
15968;SDS011;8085;53.472;9.794;2023-10-19T08:28:38;25.13;;;12.05;;
15968;SDS011;8085;53.472;9.794;2023-10-19T08:31:07;24.67;;;11.75;;
15968;SDS011;8085;53.472;9.794;2023-10-19T08:33:35;25.00;;;12.43;;
15968;SDS011;8085;53.472;9.794;2023-10-19T08:36:04;24.85;;;12.38;;
15968;SDS011;8085;53.472;9.794;2023-10-19T08:38:33;23.83;;;12.50;;
15968;SDS011;8085;53.472;9.794;2023-10-19T08:41:00;26.73;;;13.07;;
15968;SDS011;8085;53.472;9.794;2023-10-19T08:43:28;24.73;;;12.52;;
15968;SDS011;8085;53.472;9.794;2023-10-19T08:45:58;27.20;;;12.05;;
15968;SDS011;8085;53.472;9.794;2023-10-19T08:48:26;26.05;;;13.00;;
15968;SDS011;8085;53.472;9.794;2023-10-19T08:50:54;23.50;;;11.95;;
15968;SDS011;8085;53.472;9.794;2023-10-19T08:53:21;25.90;;;12.57;;
15968;SDS011;8085;53.472;9.794;2023-10-19T08:55:51;25.42;;;12.82;;
15968;SDS011;8085;53.472;9.794;2023-10-19T08:58:19;24.63;;;11.80;;
15968;SDS011;8085;53.472;9.794;2023-10-19T09:00:47;26.67;;;13.45;;
15968;SDS011;8085;53.472;9.794;2023-10-19T09:03:18;25.30;;;12.20;;
15968;SDS011;8085;53.472;9.794;2023-10-19T09:05:47;26.58;;;13.23;;
15968;SDS011;8085;53.472;9.794;2023-10-19T09:08:14;24.77;;;12.48;;
15968;SDS011;8085;53.472;9.794;2023-10-19T09:10:43;26.77;;;12.90;;
15968;SDS011;8085;53.472;9.794;2023-10-19T09:13:16;23.35;;;12.68;;
15968;SDS011;8085;53.472;9.794;2023-10-19T09:15:44;27.23;;;13.23;;
15968;SDS011;8085;53.472;9.794;2023-10-19T09:18:12;25.33;;;12.45;;
15968;SDS011;8085;53.472;9.794;2023-10-19T09:20:40;33.38;;;13.25;;
15968;SDS011;8085;53.472;9.794;2023-10-19T09:23:17;27.63;;;13.57;;
15968;SDS011;8085;53.472;9.794;2023-10-19T09:25:46;28.08;;;13.65;;
15968;SDS011;8085;53.472;9.794;2023-10-19T09:28:13;28.50;;;13.68;;
15968;SDS011;8085;53.472;9.794;2023-10-19T09:30:43;27.27;;;13.32;;
15968;SDS011;8085;53.472;9.794;2023-10-19T09:33:10;28.33;;;13.70;;
15968;SDS011;8085;53.472;9.794;2023-10-19T09:35:39;25.05;;;12.85;;
15968;SDS011;8085;53.472;9.794;2023-10-19T09:38:08;30.48;;;13.68;;
15968;SDS011;8085;53.472;9.794;2023-10-19T09:40:35;27.15;;;13.10;;
15968;SDS011;8085;53.472;9.794;2023-10-19T09:43:04;29.88;;;14.15;;
15968;SDS011;8085;53.472;9.794;2023-10-19T09:45:35;27.50;;;14.13;;
15968;SDS011;8085;53.472;9.794;2023-10-19T09:48:08;26.30;;;14.75;;
15968;SDS011;8085;53.472;9.794;2023-10-19T09:50:42;31.60;;;13.57;;
15968;SDS011;8085;53.472;9.794;2023-10-19T09:53:10;29.25;;;14.30;;
15968;SDS011;8085;53.472;9.794;2023-10-19T09:55:40;29.90;;;14.65;;
15968;SDS011;8085;53.472;9.794;2023-10-19T09:58:12;26.67;;;13.80;;
15968;SDS011;8085;53.472;9.794;2023-10-19T10:00:47;28.73;;;13.82;;
15968;SDS011;8085;53.472;9.794;2023-10-19T10:06:12;26.65;;;13.57;;
15968;SDS011;8085;53.472;9.794;2023-10-19T10:08:40;25.45;;;13.18;;
15968;SDS011;8085;53.472;9.794;2023-10-19T10:13:54;27.23;;;13.75;;
15968;SDS011;8085;53.472;9.794;2023-10-19T10:16:24;28.98;;;14.68;;
15968;SDS011;8085;53.472;9.794;2023-10-19T10:18:54;28.60;;;13.93;;
15968;SDS011;8085;53.472;9.794;2023-10-19T10:21:24;31.52;;;15.02;;
15968;SDS011;8085;53.472;9.794;2023-10-19T10:23:52;30.95;;;14.77;;
15968;SDS011;8085;53.472;9.794;2023-10-19T10:26:20;34.03;;;14.60;;
15968;SDS011;8085;53.472;9.794;2023-10-19T10:31:41;29.08;;;14.18;;
15968;SDS011;8085;53.472;9.794;2023-10-19T10:34:10;32.45;;;14.50;;
15968;SDS011;8085;53.472;9.794;2023-10-19T10:39:27;29.98;;;14.35;;
15968;SDS011;8085;53.472;9.794;2023-10-19T10:41:55;34.58;;;15.48;;
15968;SDS011;8085;53.472;9.794;2023-10-19T10:44:35;29.58;;;15.98;;
15968;SDS011;8085;53.472;9.794;2023-10-19T10:47:05;30.20;;;15.55;;
15968;SDS011;8085;53.472;9.794;2023-10-19T10:49:35;35.92;;;17.65;;
15968;SDS011;8085;53.472;9.794;2023-10-19T10:52:14;33.03;;;16.13;;
15968;SDS011;8085;53.472;9.794;2023-10-19T10:54:50;30.52;;;15.38;;
15968;SDS011;8085;53.472;9.794;2023-10-19T10:57:18;29.63;;;15.25;;
15968;SDS011;8085;53.472;9.794;2023-10-19T10:59:46;33.83;;;16.05;;
15968;SDS011;8085;53.472;9.794;2023-10-19T11:02:18;29.85;;;14.65;;
15968;SDS011;8085;53.472;9.794;2023-10-19T11:04:46;31.42;;;16.33;;
15968;SDS011;8085;53.472;9.794;2023-10-19T11:07:17;32.03;;;16.00;;
15968;SDS011;8085;53.472;9.794;2023-10-19T11:09:44;28.10;;;15.60;;
15968;SDS011;8085;53.472;9.794;2023-10-19T11:12:12;32.22;;;15.82;;
15968;SDS011;8085;53.472;9.794;2023-10-19T11:14:50;31.15;;;16.17;;
15968;SDS011;8085;53.472;9.794;2023-10-19T11:17:20;29.02;;;15.50;;
15968;SDS011;8085;53.472;9.794;2023-10-19T11:19:53;29.35;;;15.82;;
15968;SDS011;8085;53.472;9.794;2023-10-19T11:22:21;29.23;;;15.70;;
15968;SDS011;8085;53.472;9.794;2023-10-19T11:24:49;28.77;;;16.58;;
15968;SDS011;8085;53.472;9.794;2023-10-19T11:27:21;33.90;;;16.42;;
15968;SDS011;8085;53.472;9.794;2023-10-19T11:29:55;33.85;;;16.40;;
15968;SDS011;8085;53.472;9.794;2023-10-19T11:32:25;26.00;;;14.75;;
15968;SDS011;8085;53.472;9.794;2023-10-19T11:34:53;36.30;;;18.88;;
15968;SDS011;8085;53.472;9.794;2023-10-19T11:37:21;31.67;;;15.93;;
15968;SDS011;8085;53.472;9.794;2023-10-19T11:39:48;29.77;;;16.13;;
15968;SDS011;8085;53.472;9.794;2023-10-19T11:42:16;31.27;;;15.88;;
15968;SDS011;8085;53.472;9.794;2023-10-19T11:44:46;32.38;;;16.48;;
15968;SDS011;8085;53.472;9.794;2023-10-19T11:47:13;31.17;;;16.98;;
15968;SDS011;8085;53.472;9.794;2023-10-19T11:49:41;34.35;;;16.65;;
15968;SDS011;8085;53.472;9.794;2023-10-19T11:52:08;34.88;;;16.48;;
15968;SDS011;8085;53.472;9.794;2023-10-19T11:54:35;30.90;;;16.25;;
15968;SDS011;8085;53.472;9.794;2023-10-19T11:57:02;34.03;;;17.42;;
15968;SDS011;8085;53.472;9.794;2023-10-19T11:59:29;37.25;;;18.30;;
15968;SDS011;8085;53.472;9.794;2023-10-19T12:01:56;36.67;;;17.55;;
15968;SDS011;8085;53.472;9.794;2023-10-19T12:04:24;33.60;;;17.90;;
15968;SDS011;8085;53.472;9.794;2023-10-19T12:06:52;37.03;;;18.30;;
15968;SDS011;8085;53.472;9.794;2023-10-19T12:09:20;36.22;;;18.38;;
15968;SDS011;8085;53.472;9.794;2023-10-19T12:11:49;36.10;;;17.63;;
15968;SDS011;8085;53.472;9.794;2023-10-19T12:14:18;33.58;;;16.75;;
15968;SDS011;8085;53.472;9.794;2023-10-19T12:16:46;32.47;;;16.58;;
15968;SDS011;8085;53.472;9.794;2023-10-19T12:19:13;36.20;;;16.38;;
15968;SDS011;8085;53.472;9.794;2023-10-19T12:21:42;31.80;;;15.93;;
15968;SDS011;8085;53.472;9.794;2023-10-19T12:24:11;33.97;;;16.80;;
15968;SDS011;8085;53.472;9.794;2023-10-19T12:26:38;34.85;;;17.05;;
15968;SDS011;8085;53.472;9.794;2023-10-19T12:29:04;36.17;;;17.90;;
15968;SDS011;8085;53.472;9.794;2023-10-19T12:31:35;34.05;;;16.85;;
15968;SDS011;8085;53.472;9.794;2023-10-19T12:34:05;31.85;;;16.50;;
15968;SDS011;8085;53.472;9.794;2023-10-19T12:36:33;32.85;;;17.05;;
15968;SDS011;8085;53.472;9.794;2023-10-19T12:39:01;32.58;;;15.90;;
15968;SDS011;8085;53.472;9.794;2023-10-19T12:41:31;33.53;;;16.55;;
15968;SDS011;8085;53.472;9.794;2023-10-19T12:43:58;33.75;;;18.27;;
15968;SDS011;8085;53.472;9.794;2023-10-19T12:46:27;33.00;;;16.75;;
15968;SDS011;8085;53.472;9.794;2023-10-19T12:48:56;31.67;;;16.55;;
15968;SDS011;8085;53.472;9.794;2023-10-19T12:51:24;33.28;;;16.40;;
15968;SDS011;8085;53.472;9.794;2023-10-19T12:53:51;32.65;;;16.80;;
15968;SDS011;8085;53.472;9.794;2023-10-19T12:56:19;29.85;;;16.05;;
15968;SDS011;8085;53.472;9.794;2023-10-19T12:58:47;33.28;;;17.27;;
15968;SDS011;8085;53.472;9.794;2023-10-19T13:01:15;33.17;;;15.82;;
15968;SDS011;8085;53.472;9.794;2023-10-19T13:03:43;35.50;;;16.63;;
15968;SDS011;8085;53.472;9.794;2023-10-19T13:06:11;33.42;;;16.00;;
15968;SDS011;8085;53.472;9.794;2023-10-19T13:08:39;33.97;;;17.30;;
15968;SDS011;8085;53.472;9.794;2023-10-19T13:11:07;32.67;;;16.33;;
15968;SDS011;8085;53.472;9.794;2023-10-19T13:13:35;33.13;;;16.90;;
15968;SDS011;8085;53.472;9.794;2023-10-19T13:16:05;32.42;;;16.88;;
15968;SDS011;8085;53.472;9.794;2023-10-19T13:18:34;33.88;;;17.17;;
15968;SDS011;8085;53.472;9.794;2023-10-19T13:21:01;29.15;;;15.18;;
15968;SDS011;8085;53.472;9.794;2023-10-19T13:23:30;35.40;;;17.95;;
15968;SDS011;8085;53.472;9.794;2023-10-19T13:25:58;31.98;;;16.10;;
15968;SDS011;8085;53.472;9.794;2023-10-19T13:28:33;34.67;;;17.48;;
15968;SDS011;8085;53.472;9.794;2023-10-19T13:31:02;32.33;;;16.20;;
15968;SDS011;8085;53.472;9.794;2023-10-19T13:33:31;29.85;;;16.20;;
15968;SDS011;8085;53.472;9.794;2023-10-19T13:35:58;30.67;;;15.98;;
15968;SDS011;8085;53.472;9.794;2023-10-19T13:38:25;32.88;;;16.13;;
15968;SDS011;8085;53.472;9.794;2023-10-19T13:40:52;32.70;;;17.50;;
15968;SDS011;8085;53.472;9.794;2023-10-19T13:43:19;31.67;;;16.80;;
15968;SDS011;8085;53.472;9.794;2023-10-19T13:45:47;34.17;;;15.98;;
15968;SDS011;8085;53.472;9.794;2023-10-19T13:48:14;33.63;;;16.35;;
15968;SDS011;8085;53.472;9.794;2023-10-19T13:50:44;34.90;;;16.38;;
15968;SDS011;8085;53.472;9.794;2023-10-19T13:53:13;35.90;;;17.40;;
15968;SDS011;8085;53.472;9.794;2023-10-19T13:55:40;32.28;;;15.73;;
15968;SDS011;8085;53.472;9.794;2023-10-19T13:58:07;33.88;;;16.30;;
15968;SDS011;8085;53.472;9.794;2023-10-19T14:00:36;32.70;;;16.08;;
15968;SDS011;8085;53.472;9.794;2023-10-19T14:03:06;35.95;;;17.10;;
15968;SDS011;8085;53.472;9.794;2023-10-19T14:05:38;32.70;;;17.33;;
15968;SDS011;8085;53.472;9.794;2023-10-19T14:08:09;32.33;;;15.68;;
15968;SDS011;8085;53.472;9.794;2023-10-19T14:10:37;36.22;;;17.23;;
15968;SDS011;8085;53.472;9.794;2023-10-19T14:13:08;33.20;;;16.17;;
15968;SDS011;8085;53.472;9.794;2023-10-19T14:15:42;30.08;;;16.25;;
15968;SDS011;8085;53.472;9.794;2023-10-19T14:18:09;33.50;;;16.73;;
15968;SDS011;8085;53.472;9.794;2023-10-19T14:20:36;35.25;;;16.80;;
15968;SDS011;8085;53.472;9.794;2023-10-19T14:23:10;36.95;;;17.52;;
15968;SDS011;8085;53.472;9.794;2023-10-19T14:25:37;36.55;;;16.92;;
15968;SDS011;8085;53.472;9.794;2023-10-19T14:28:05;32.90;;;16.92;;
15968;SDS011;8085;53.472;9.794;2023-10-19T14:30:34;32.75;;;16.35;;
15968;SDS011;8085;53.472;9.794;2023-10-19T14:33:03;37.38;;;16.90;;
15968;SDS011;8085;53.472;9.794;2023-10-19T14:35:34;36.28;;;16.98;;
15968;SDS011;8085;53.472;9.794;2023-10-19T14:38:09;34.15;;;17.73;;
15968;SDS011;8085;53.472;9.794;2023-10-19T14:40:43;34.97;;;17.25;;
15968;SDS011;8085;53.472;9.794;2023-10-19T14:43:13;34.72;;;17.17;;
15968;SDS011;8085;53.472;9.794;2023-10-19T14:45:43;36.10;;;18.08;;
15968;SDS011;8085;53.472;9.794;2023-10-19T14:48:10;33.88;;;16.90;;
15968;SDS011;8085;53.472;9.794;2023-10-19T14:50:40;33.63;;;17.17;;
15968;SDS011;8085;53.472;9.794;2023-10-19T14:53:14;47.05;;;20.38;;
15968;SDS011;8085;53.472;9.794;2023-10-19T14:55:42;39.35;;;18.98;;
15968;SDS011;8085;53.472;9.794;2023-10-19T14:58:10;50.53;;;22.13;;
15968;SDS011;8085;53.472;9.794;2023-10-19T15:00:37;48.63;;;23.33;;
15968;SDS011;8085;53.472;9.794;2023-10-19T15:03:07;37.58;;;19.98;;
15968;SDS011;8085;53.472;9.794;2023-10-19T15:05:34;36.33;;;17.92;;
15968;SDS011;8085;53.472;9.794;2023-10-19T15:08:02;38.35;;;20.17;;